sensor_id;sensor_type;location;lat;lon;timestamp;temperature;humidity
11055;DHT22;5580;50.106;8.702;2022-08-02T00:00:14;24.00;97.20
11055;DHT22;5580;50.106;8.702;2022-08-02T00:02:44;24.00;97.30
11055;DHT22;5580;50.106;8.702;2022-08-02T00:05:11;24.00;97.50
11055;DHT22;5580;50.106;8.702;2022-08-02T00:07:37;23.90;97.50
11055;DHT22;5580;50.106;8.702;2022-08-02T00:10:04;24.00;97.50
11055;DHT22;5580;50.106;8.702;2022-08-02T00:12:30;24.00;97.60
11055;DHT22;5580;50.106;8.702;2022-08-02T00:14:56;23.90;97.60
11055;DHT22;5580;50.106;8.702;2022-08-02T00:17:21;23.90;97.70
11055;DHT22;5580;50.106;8.702;2022-08-02T00:19:47;23.90;97.80
11055;DHT22;5580;50.106;8.702;2022-08-02T00:22:13;23.90;97.80
11055;DHT22;5580;50.106;8.702;2022-08-02T00:24:38;23.80;97.70
11055;DHT22;5580;50.106;8.702;2022-08-02T00:27:04;23.90;97.80
11055;DHT22;5580;50.106;8.702;2022-08-02T00:29:33;23.90;98.00
11055;DHT22;5580;50.106;8.702;2022-08-02T00:31:58;23.70;98.00
11055;DHT22;5580;50.106;8.702;2022-08-02T00:34:24;23.70;98.30
11055;DHT22;5580;50.106;8.702;2022-08-02T00:36:50;23.70;98.50
11055;DHT22;5580;50.106;8.702;2022-08-02T00:39:15;23.70;98.40
11055;DHT22;5580;50.106;8.702;2022-08-02T00:41:46;23.70;98.40
11055;DHT22;5580;50.106;8.702;2022-08-02T00:44:14;23.70;98.40
11055;DHT22;5580;50.106;8.702;2022-08-02T00:46:41;23.70;98.30
11055;DHT22;5580;50.106;8.702;2022-08-02T00:49:07;23.70;98.40
11055;DHT22;5580;50.106;8.702;2022-08-02T00:51:32;23.70;98.40
11055;DHT22;5580;50.106;8.702;2022-08-02T00:53:58;23.60;98.30
11055;DHT22;5580;50.106;8.702;2022-08-02T00:56:23;23.60;98.30
11055;DHT22;5580;50.106;8.702;2022-08-02T00:58:49;23.60;98.20
11055;DHT22;5580;50.106;8.702;2022-08-02T01:01:15;23.70;98.30
11055;DHT22;5580;50.106;8.702;2022-08-02T01:03:40;23.60;98.30
11055;DHT22;5580;50.106;8.702;2022-08-02T01:06:06;23.60;98.40
11055;DHT22;5580;50.106;8.702;2022-08-02T01:08:32;23.60;98.40
11055;DHT22;5580;50.106;8.702;2022-08-02T01:10:58;23.60;98.40
11055;DHT22;5580;50.106;8.702;2022-08-02T01:13:24;23.60;98.40
11055;DHT22;5580;50.106;8.702;2022-08-02T01:16:01;23.60;98.40
11055;DHT22;5580;50.106;8.702;2022-08-02T01:18:33;23.50;98.30
11055;DHT22;5580;50.106;8.702;2022-08-02T01:21:13;23.50;98.40
11055;DHT22;5580;50.106;8.702;2022-08-02T01:24:03;23.50;98.30
11055;DHT22;5580;50.106;8.702;2022-08-02T01:26:57;23.50;98.30
11055;DHT22;5580;50.106;8.702;2022-08-02T01:29:33;23.50;98.30
11055;DHT22;5580;50.106;8.702;2022-08-02T01:32:08;23.50;98.40
11055;DHT22;5580;50.106;8.702;2022-08-02T01:34:40;23.40;98.40
11055;DHT22;5580;50.106;8.702;2022-08-02T01:37:13;23.40;98.50
11055;DHT22;5580;50.106;8.702;2022-08-02T01:39:42;23.30;98.50
11055;DHT22;5580;50.106;8.702;2022-08-02T01:42:09;23.30;98.70
11055;DHT22;5580;50.106;8.702;2022-08-02T01:44:38;23.30;98.80
11055;DHT22;5580;50.106;8.702;2022-08-02T01:47:09;23.30;98.90
11055;DHT22;5580;50.106;8.702;2022-08-02T01:49:36;23.10;99.00
11055;DHT22;5580;50.106;8.702;2022-08-02T01:52:04;23.00;99.20
11055;DHT22;5580;50.106;8.702;2022-08-02T01:57:46;22.90;99.40
11055;DHT22;5580;50.106;8.702;2022-08-02T02:00:14;22.80;99.50
11055;DHT22;5580;50.106;8.702;2022-08-02T02:02:43;22.90;99.60
11055;DHT22;5580;50.106;8.702;2022-08-02T02:05:12;22.90;99.70
11055;DHT22;5580;50.106;8.702;2022-08-02T02:07:39;23.00;99.80
11055;DHT22;5580;50.106;8.702;2022-08-02T02:10:08;22.90;99.60
11055;DHT22;5580;50.106;8.702;2022-08-02T02:12:38;22.90;99.70
11055;DHT22;5580;50.106;8.702;2022-08-02T02:15:06;22.90;99.90
11055;DHT22;5580;50.106;8.702;2022-08-02T02:17:35;22.90;99.90
11055;DHT22;5580;50.106;8.702;2022-08-02T02:20:02;22.90;99.90
11055;DHT22;5580;50.106;8.702;2022-08-02T02:22:27;22.90;99.90
11055;DHT22;5580;50.106;8.702;2022-08-02T02:24:53;22.90;99.90
11055;DHT22;5580;50.106;8.702;2022-08-02T02:27:19;22.80;99.90
11055;DHT22;5580;50.106;8.702;2022-08-02T02:29:48;22.80;99.90
11055;DHT22;5580;50.106;8.702;2022-08-02T02:32:15;22.90;99.90
11055;DHT22;5580;50.106;8.702;2022-08-02T02:34:44;22.90;99.90
11055;DHT22;5580;50.106;8.702;2022-08-02T02:37:19;22.90;99.90
11055;DHT22;5580;50.106;8.702;2022-08-02T02:39:48;22.90;99.90
11055;DHT22;5580;50.106;8.702;2022-08-02T02:42:17;22.90;99.90
11055;DHT22;5580;50.106;8.702;2022-08-02T02:44:43;22.90;99.90
11055;DHT22;5580;50.106;8.702;2022-08-02T02:47:10;22.90;99.90
11055;DHT22;5580;50.106;8.702;2022-08-02T02:49:39;23.00;99.90
11055;DHT22;5580;50.106;8.702;2022-08-02T02:52:05;22.90;99.90
11055;DHT22;5580;50.106;8.702;2022-08-02T02:54:32;22.90;99.90
11055;DHT22;5580;50.106;8.702;2022-08-02T02:57:00;22.90;99.90
11055;DHT22;5580;50.106;8.702;2022-08-02T02:59:26;22.90;99.90
11055;DHT22;5580;50.106;8.702;2022-08-02T03:01:53;22.90;99.90
11055;DHT22;5580;50.106;8.702;2022-08-02T03:04:20;22.90;99.90
11055;DHT22;5580;50.106;8.702;2022-08-02T03:06:46;22.90;99.90
11055;DHT22;5580;50.106;8.702;2022-08-02T03:09:12;22.80;99.90
11055;DHT22;5580;50.106;8.702;2022-08-02T03:11:39;22.80;99.90
11055;DHT22;5580;50.106;8.702;2022-08-02T03:14:09;22.80;99.90
11055;DHT22;5580;50.106;8.702;2022-08-02T03:16:44;22.80;99.90
11055;DHT22;5580;50.106;8.702;2022-08-02T03:19:10;22.70;99.90
11055;DHT22;5580;50.106;8.702;2022-08-02T03:21:36;22.50;99.90
11055;DHT22;5580;50.106;8.702;2022-08-02T03:24:02;22.40;99.90
11055;DHT22;5580;50.106;8.702;2022-08-02T03:26:27;22.30;99.90
11055;DHT22;5580;50.106;8.702;2022-08-02T03:28:53;22.40;99.90
11055;DHT22;5580;50.106;8.702;2022-08-02T03:31:18;22.40;99.90
11055;DHT22;5580;50.106;8.702;2022-08-02T03:33:44;22.40;99.90
11055;DHT22;5580;50.106;8.702;2022-08-02T03:36:14;22.40;99.90
11055;DHT22;5580;50.106;8.702;2022-08-02T03:38:41;22.40;99.90
11055;DHT22;5580;50.106;8.702;2022-08-02T03:41:09;22.40;99.90
11055;DHT22;5580;50.106;8.702;2022-08-02T03:43:37;22.40;99.90
11055;DHT22;5580;50.106;8.702;2022-08-02T03:46:03;22.40;99.90
11055;DHT22;5580;50.106;8.702;2022-08-02T03:48:30;22.40;99.90
11055;DHT22;5580;50.106;8.702;2022-08-02T03:50:57;22.40;99.90
11055;DHT22;5580;50.106;8.702;2022-08-02T03:53:23;22.30;99.90
11055;DHT22;5580;50.106;8.702;2022-08-02T03:55:49;22.30;99.90
11055;DHT22;5580;50.106;8.702;2022-08-02T03:58:22;22.30;99.90
11055;DHT22;5580;50.106;8.702;2022-08-02T04:00:50;22.30;99.90
11055;DHT22;5580;50.106;8.702;2022-08-02T04:03:16;22.20;99.90
11055;DHT22;5580;50.106;8.702;2022-08-02T04:05:41;22.10;99.90
11055;DHT22;5580;50.106;8.702;2022-08-02T04:08:07;22.10;99.90
11055;DHT22;5580;50.106;8.702;2022-08-02T04:10:33;22.10;99.90
11055;DHT22;5580;50.106;8.702;2022-08-02T04:13:19;22.10;99.90
11055;DHT22;5580;50.106;8.702;2022-08-02T04:15:49;22.10;99.90
11055;DHT22;5580;50.106;8.702;2022-08-02T04:18:16;22.10;99.90
11055;DHT22;5580;50.106;8.702;2022-08-02T04:20:44;22.10;99.90
11055;DHT22;5580;50.106;8.702;2022-08-02T04:23:14;22.10;99.90
11055;DHT22;5580;50.106;8.702;2022-08-02T04:25:41;22.10;99.90
11055;DHT22;5580;50.106;8.702;2022-08-02T04:28:07;22.10;99.90
11055;DHT22;5580;50.106;8.702;2022-08-02T04:30:34;22.10;99.90
11055;DHT22;5580;50.106;8.702;2022-08-02T04:33:01;22.10;99.90
11055;DHT22;5580;50.106;8.702;2022-08-02T04:35:29;22.10;99.90
11055;DHT22;5580;50.106;8.702;2022-08-02T04:37:55;22.00;99.90
11055;DHT22;5580;50.106;8.702;2022-08-02T04:40:21;22.00;99.90
11055;DHT22;5580;50.106;8.702;2022-08-02T04:42:46;22.00;99.90
11055;DHT22;5580;50.106;8.702;2022-08-02T04:45:12;22.00;99.90
11055;DHT22;5580;50.106;8.702;2022-08-02T04:47:38;22.00;99.90
11055;DHT22;5580;50.106;8.702;2022-08-02T04:50:04;22.00;99.90
11055;DHT22;5580;50.106;8.702;2022-08-02T04:52:29;22.00;99.90
11055;DHT22;5580;50.106;8.702;2022-08-02T04:54:55;22.00;99.90
11055;DHT22;5580;50.106;8.702;2022-08-02T04:57:21;22.10;99.90
11055;DHT22;5580;50.106;8.702;2022-08-02T05:00:07;22.10;99.90
11055;DHT22;5580;50.106;8.702;2022-08-02T05:02:34;22.20;99.90
11055;DHT22;5580;50.106;8.702;2022-08-02T05:04:59;22.30;99.90
11055;DHT22;5580;50.106;8.702;2022-08-02T05:07:25;22.40;99.90
11055;DHT22;5580;50.106;8.702;2022-08-02T05:09:51;22.40;99.90
11055;DHT22;5580;50.106;8.702;2022-08-02T05:12:16;22.30;99.90
11055;DHT22;5580;50.106;8.702;2022-08-02T05:14:42;22.20;99.90
11055;DHT22;5580;50.106;8.702;2022-08-02T05:17:07;22.30;99.90
11055;DHT22;5580;50.106;8.702;2022-08-02T05:19:33;22.20;99.90
11055;DHT22;5580;50.106;8.702;2022-08-02T05:21:58;22.20;99.90
11055;DHT22;5580;50.106;8.702;2022-08-02T05:24:24;22.10;99.90
11055;DHT22;5580;50.106;8.702;2022-08-02T05:26:50;22.20;99.90
11055;DHT22;5580;50.106;8.702;2022-08-02T05:29:16;22.30;99.90
11055;DHT22;5580;50.106;8.702;2022-08-02T05:31:41;22.30;99.90
11055;DHT22;5580;50.106;8.702;2022-08-02T05:34:07;22.30;99.90
11055;DHT22;5580;50.106;8.702;2022-08-02T05:36:33;22.40;99.90
11055;DHT22;5580;50.106;8.702;2022-08-02T05:38:58;22.50;99.90
11055;DHT22;5580;50.106;8.702;2022-08-02T05:41:24;22.60;99.90
11055;DHT22;5580;50.106;8.702;2022-08-02T05:43:49;22.70;99.90
11055;DHT22;5580;50.106;8.702;2022-08-02T05:46:15;22.80;99.90
11055;DHT22;5580;50.106;8.702;2022-08-02T05:48:41;22.80;99.90
11055;DHT22;5580;50.106;8.702;2022-08-02T05:51:12;22.80;99.90
11055;DHT22;5580;50.106;8.702;2022-08-02T05:53:49;22.90;99.90
11055;DHT22;5580;50.106;8.702;2022-08-02T06:01:38;23.10;99.90
11055;DHT22;5580;50.106;8.702;2022-08-02T06:04:10;23.20;99.90
11055;DHT22;5580;50.106;8.702;2022-08-02T06:06:42;23.40;99.90
11055;DHT22;5580;50.106;8.702;2022-08-02T06:09:14;23.60;99.90
11055;DHT22;5580;50.106;8.702;2022-08-02T06:11:45;23.70;99.90
11055;DHT22;5580;50.106;8.702;2022-08-02T06:14:12;23.70;99.90
11055;DHT22;5580;50.106;8.702;2022-08-02T06:16:38;23.80;99.90
11055;DHT22;5580;50.106;8.702;2022-08-02T06:19:04;23.80;99.90
11055;DHT22;5580;50.106;8.702;2022-08-02T06:21:30;23.80;99.90
11055;DHT22;5580;50.106;8.702;2022-08-02T06:23:57;23.70;99.90
11055;DHT22;5580;50.106;8.702;2022-08-02T06:26:23;23.50;99.90
11055;DHT22;5580;50.106;8.702;2022-08-02T06:28:51;23.50;99.90
11055;DHT22;5580;50.106;8.702;2022-08-02T06:31:18;23.40;99.90
11055;DHT22;5580;50.106;8.702;2022-08-02T06:33:43;23.40;99.90
11055;DHT22;5580;50.106;8.702;2022-08-02T06:38:43;23.30;99.90
11055;DHT22;5580;50.106;8.702;2022-08-02T06:41:12;23.20;99.90
11055;DHT22;5580;50.106;8.702;2022-08-02T06:46:06;23.00;99.90
11055;DHT22;5580;50.106;8.702;2022-08-02T06:48:32;23.10;99.90
11055;DHT22;5580;50.106;8.702;2022-08-02T06:51:01;23.10;99.90
11055;DHT22;5580;50.106;8.702;2022-08-02T06:53:26;23.20;99.90
11055;DHT22;5580;50.106;8.702;2022-08-02T06:55:52;23.20;99.90
11055;DHT22;5580;50.106;8.702;2022-08-02T06:58:17;23.30;99.90
11055;DHT22;5580;50.106;8.702;2022-08-02T07:00:43;23.30;99.90
11055;DHT22;5580;50.106;8.702;2022-08-02T07:03:09;23.40;99.90
11055;DHT22;5580;50.106;8.702;2022-08-02T07:05:35;23.30;99.90
11055;DHT22;5580;50.106;8.702;2022-08-02T07:08:01;23.20;99.90
11055;DHT22;5580;50.106;8.702;2022-08-02T07:10:27;23.20;99.90
11055;DHT22;5580;50.106;8.702;2022-08-02T07:12:53;23.30;99.90
11055;DHT22;5580;50.106;8.702;2022-08-02T07:15:18;23.30;99.90
11055;DHT22;5580;50.106;8.702;2022-08-02T07:17:44;23.30;99.90
11055;DHT22;5580;50.106;8.702;2022-08-02T07:20:10;23.40;99.90
11055;DHT22;5580;50.106;8.702;2022-08-02T07:22:37;23.40;99.90
11055;DHT22;5580;50.106;8.702;2022-08-02T07:25:03;23.30;99.90
11055;DHT22;5580;50.106;8.702;2022-08-02T07:27:29;23.40;99.90
11055;DHT22;5580;50.106;8.702;2022-08-02T07:29:55;23.40;99.90
11055;DHT22;5580;50.106;8.702;2022-08-02T07:32:24;23.40;99.90
11055;DHT22;5580;50.106;8.702;2022-08-02T07:34:51;23.40;99.90
11055;DHT22;5580;50.106;8.702;2022-08-02T07:37:17;23.40;99.90
11055;DHT22;5580;50.106;8.702;2022-08-02T07:39:42;23.40;99.90
11055;DHT22;5580;50.106;8.702;2022-08-02T07:42:08;23.40;99.90
11055;DHT22;5580;50.106;8.702;2022-08-02T07:44:33;23.30;99.90
11055;DHT22;5580;50.106;8.702;2022-08-02T07:47:03;23.30;99.90
11055;DHT22;5580;50.106;8.702;2022-08-02T07:49:29;23.20;99.90
11055;DHT22;5580;50.106;8.702;2022-08-02T07:51:55;23.30;99.90
11055;DHT22;5580;50.106;8.702;2022-08-02T07:54:21;23.40;99.90
11055;DHT22;5580;50.106;8.702;2022-08-02T07:56:47;23.60;99.90
11055;DHT22;5580;50.106;8.702;2022-08-02T07:59:12;23.70;99.90
11055;DHT22;5580;50.106;8.702;2022-08-02T08:01:38;23.90;99.90
11055;DHT22;5580;50.106;8.702;2022-08-02T08:04:04;24.10;99.90
11055;DHT22;5580;50.106;8.702;2022-08-02T08:06:30;24.10;99.90
11055;DHT22;5580;50.106;8.702;2022-08-02T08:08:56;24.20;99.90
11055;DHT22;5580;50.106;8.702;2022-08-02T08:11:22;24.30;99.90
11055;DHT22;5580;50.106;8.702;2022-08-02T08:13:48;24.40;99.90
11055;DHT22;5580;50.106;8.702;2022-08-02T08:16:14;24.50;98.70
11055;DHT22;5580;50.106;8.702;2022-08-02T08:18:40;24.60;99.30
11055;DHT22;5580;50.106;8.702;2022-08-02T08:21:05;24.70;99.20
11055;DHT22;5580;50.106;8.702;2022-08-02T08:23:31;24.80;97.60
11055;DHT22;5580;50.106;8.702;2022-08-02T08:25:57;24.80;97.30
11055;DHT22;5580;50.106;8.702;2022-08-02T08:28:22;24.90;97.80
11055;DHT22;5580;50.106;8.702;2022-08-02T08:30:48;25.00;98.30
11055;DHT22;5580;50.106;8.702;2022-08-02T08:33:14;24.90;97.40
11055;DHT22;5580;50.106;8.702;2022-08-02T08:35:40;25.00;97.80
11055;DHT22;5580;50.106;8.702;2022-08-02T08:38:06;25.10;98.40
11055;DHT22;5580;50.106;8.702;2022-08-02T08:40:33;25.10;97.40
11055;DHT22;5580;50.106;8.702;2022-08-02T08:42:59;25.30;97.80
11055;DHT22;5580;50.106;8.702;2022-08-02T08:45:24;25.40;97.70
11055;DHT22;5580;50.106;8.702;2022-08-02T08:47:54;25.40;96.60
11055;DHT22;5580;50.106;8.702;2022-08-02T08:50:24;25.40;96.70
11055;DHT22;5580;50.106;8.702;2022-08-02T08:53:03;25.50;95.30
11055;DHT22;5580;50.106;8.702;2022-08-02T08:55:30;25.50;95.80
11055;DHT22;5580;50.106;8.702;2022-08-02T08:57:58;25.60;95.90
11055;DHT22;5580;50.106;8.702;2022-08-02T09:00:24;25.60;95.10
11055;DHT22;5580;50.106;8.702;2022-08-02T09:02:50;25.60;95.20
11055;DHT22;5580;50.106;8.702;2022-08-02T09:05:16;25.80;95.50
11055;DHT22;5580;50.106;8.702;2022-08-02T09:07:49;25.90;95.20
11055;DHT22;5580;50.106;8.702;2022-08-02T09:16:25;26.20;94.10
11055;DHT22;5580;50.106;8.702;2022-08-02T09:18:38;26.30;93.30
11055;DHT22;5580;50.106;8.702;2022-08-02T09:21:06;26.20;93.50
11055;DHT22;5580;50.106;8.702;2022-08-02T09:23:37;26.10;93.80
11055;DHT22;5580;50.106;8.702;2022-08-02T09:26:10;26.10;94.30
11055;DHT22;5580;50.106;8.702;2022-08-02T09:28:38;26.10;93.50
11055;DHT22;5580;50.106;8.702;2022-08-02T09:31:10;26.10;92.80
11055;DHT22;5580;50.106;8.702;2022-08-02T09:33:39;26.10;93.10
11055;DHT22;5580;50.106;8.702;2022-08-02T09:36:06;26.20;93.40
11055;DHT22;5580;50.106;8.702;2022-08-02T09:38:33;26.20;91.70
11055;DHT22;5580;50.106;8.702;2022-08-02T09:40:59;26.10;92.40
11055;DHT22;5580;50.106;8.702;2022-08-02T09:43:43;26.10;91.20
11055;DHT22;5580;50.106;8.702;2022-08-02T09:46:12;26.20;92.20
11055;DHT22;5580;50.106;8.702;2022-08-02T09:48:51;26.20;91.70
11055;DHT22;5580;50.106;8.702;2022-08-02T09:51:22;26.30;90.80
11055;DHT22;5580;50.106;8.702;2022-08-02T09:53:50;26.30;91.00
11055;DHT22;5580;50.106;8.702;2022-08-02T09:56:17;26.40;91.30
11055;DHT22;5580;50.106;8.702;2022-08-02T09:58:43;26.40;91.20
11055;DHT22;5580;50.106;8.702;2022-08-02T10:01:09;26.40;91.70
11055;DHT22;5580;50.106;8.702;2022-08-02T10:03:35;26.50;91.50
11055;DHT22;5580;50.106;8.702;2022-08-02T10:06:01;26.60;90.80
11055;DHT22;5580;50.106;8.702;2022-08-02T10:08:28;26.70;90.40
11055;DHT22;5580;50.106;8.702;2022-08-02T10:10:54;26.80;90.40
11055;DHT22;5580;50.106;8.702;2022-08-02T10:13:34;26.80;90.60
11055;DHT22;5580;50.106;8.702;2022-08-02T10:16:00;26.70;90.30
11055;DHT22;5580;50.106;8.702;2022-08-02T10:18:27;26.70;90.10
11055;DHT22;5580;50.106;8.702;2022-08-02T10:20:55;26.70;90.30
11055;DHT22;5580;50.106;8.702;2022-08-02T10:23:21;26.70;88.90
11055;DHT22;5580;50.106;8.702;2022-08-02T10:25:50;26.70;88.30
11055;DHT22;5580;50.106;8.702;2022-08-02T10:28:17;26.70;89.30
11055;DHT22;5580;50.106;8.702;2022-08-02T10:30:46;26.80;89.10
11055;DHT22;5580;50.106;8.702;2022-08-02T10:33:16;26.90;88.80
11055;DHT22;5580;50.106;8.702;2022-08-02T10:35:45;27.00;88.00
11055;DHT22;5580;50.106;8.702;2022-08-02T10:38:11;27.00;86.50
11055;DHT22;5580;50.106;8.702;2022-08-02T10:43:09;26.90;85.10
11055;DHT22;5580;50.106;8.702;2022-08-02T10:45:34;26.90;86.30
11055;DHT22;5580;50.106;8.702;2022-08-02T10:53:25;27.10;85.90
11055;DHT22;5580;50.106;8.702;2022-08-02T10:55:53;27.20;84.90
11055;DHT22;5580;50.106;8.702;2022-08-02T10:58:21;27.20;85.00
11055;DHT22;5580;50.106;8.702;2022-08-02T11:00:48;27.30;83.50
11055;DHT22;5580;50.106;8.702;2022-08-02T11:03:34;27.30;83.70
11055;DHT22;5580;50.106;8.702;2022-08-02T11:06:01;27.30;83.70
11055;DHT22;5580;50.106;8.702;2022-08-02T11:08:28;27.30;83.20
11055;DHT22;5580;50.106;8.702;2022-08-02T11:10:57;27.30;82.90
11055;DHT22;5580;50.106;8.702;2022-08-02T11:13:24;27.40;83.80
11055;DHT22;5580;50.106;8.702;2022-08-02T11:16:02;27.40;83.80
11055;DHT22;5580;50.106;8.702;2022-08-02T11:21:27;27.30;81.60
11055;DHT22;5580;50.106;8.702;2022-08-02T11:23:53;27.30;80.90
11055;DHT22;5580;50.106;8.702;2022-08-02T11:28:59;27.40;79.90
11055;DHT22;5580;50.106;8.702;2022-08-02T11:31:25;27.40;81.40
11055;DHT22;5580;50.106;8.702;2022-08-02T11:33:51;27.40;81.40
11055;DHT22;5580;50.106;8.702;2022-08-02T11:36:17;27.50;81.00
11055;DHT22;5580;50.106;8.702;2022-08-02T11:38:43;27.50;80.50
11055;DHT22;5580;50.106;8.702;2022-08-02T11:41:18;27.50;80.30
11055;DHT22;5580;50.106;8.702;2022-08-02T11:43:43;27.50;79.70
11055;DHT22;5580;50.106;8.702;2022-08-02T11:46:13;27.50;79.30
11055;DHT22;5580;50.106;8.702;2022-08-02T11:48:40;27.50;80.00
11055;DHT22;5580;50.106;8.702;2022-08-02T11:51:16;27.40;79.60
11055;DHT22;5580;50.106;8.702;2022-08-02T11:53:53;27.40;80.30
11055;DHT22;5580;50.106;8.702;2022-08-02T11:56:27;27.40;80.20
11055;DHT22;5580;50.106;8.702;2022-08-02T11:59:09;27.40;79.90
11055;DHT22;5580;50.106;8.702;2022-08-02T12:01:37;27.40;78.60
11055;DHT22;5580;50.106;8.702;2022-08-02T12:04:05;27.40;79.10
11055;DHT22;5580;50.106;8.702;2022-08-02T12:06:31;27.40;79.20
11055;DHT22;5580;50.106;8.702;2022-08-02T12:11:24;27.50;78.10
11055;DHT22;5580;50.106;8.702;2022-08-02T12:13:49;27.50;78.70
11055;DHT22;5580;50.106;8.702;2022-08-02T12:16:15;27.50;77.90
11055;DHT22;5580;50.106;8.702;2022-08-02T12:18:59;27.50;77.90
11055;DHT22;5580;50.106;8.702;2022-08-02T12:21:46;27.50;78.50
11055;DHT22;5580;50.106;8.702;2022-08-02T12:24:13;27.50;79.20
11055;DHT22;5580;50.106;8.702;2022-08-02T12:26:46;27.50;78.10
11055;DHT22;5580;50.106;8.702;2022-08-02T12:29:13;27.60;78.60
11055;DHT22;5580;50.106;8.702;2022-08-02T12:31:43;27.60;78.40
11055;DHT22;5580;50.106;8.702;2022-08-02T12:34:17;27.70;77.50
11055;DHT22;5580;50.106;8.702;2022-08-02T12:37:00;27.70;77.70
11055;DHT22;5580;50.106;8.702;2022-08-02T12:39:43;27.70;77.30
11055;DHT22;5580;50.106;8.702;2022-08-02T12:42:12;27.70;77.00
11055;DHT22;5580;50.106;8.702;2022-08-02T12:44:52;27.70;77.30
11055;DHT22;5580;50.106;8.702;2022-08-02T12:47:18;27.70;76.60
11055;DHT22;5580;50.106;8.702;2022-08-02T12:49:46;27.70;76.20
11055;DHT22;5580;50.106;8.702;2022-08-02T12:52:22;27.70;76.80
11055;DHT22;5580;50.106;8.702;2022-08-02T12:54:49;27.70;76.70
11055;DHT22;5580;50.106;8.702;2022-08-02T12:57:16;27.70;76.90
11055;DHT22;5580;50.106;8.702;2022-08-02T12:59:48;27.70;76.70
11055;DHT22;5580;50.106;8.702;2022-08-02T13:02:13;27.70;76.40
11055;DHT22;5580;50.106;8.702;2022-08-02T13:04:41;27.70;76.40
11055;DHT22;5580;50.106;8.702;2022-08-02T13:07:07;27.70;75.40
11055;DHT22;5580;50.106;8.702;2022-08-02T13:09:37;27.80;74.80
11055;DHT22;5580;50.106;8.702;2022-08-02T13:12:05;27.80;75.00
11055;DHT22;5580;50.106;8.702;2022-08-02T13:14:31;27.90;75.30
11055;DHT22;5580;50.106;8.702;2022-08-02T13:16:56;27.90;74.50
11055;DHT22;5580;50.106;8.702;2022-08-02T13:19:22;27.90;74.50
11055;DHT22;5580;50.106;8.702;2022-08-02T13:21:48;27.90;74.80
11055;DHT22;5580;50.106;8.702;2022-08-02T13:24:14;27.90;74.30
11055;DHT22;5580;50.106;8.702;2022-08-02T13:26:41;27.90;74.00
11055;DHT22;5580;50.106;8.702;2022-08-02T13:29:07;27.90;73.60
11055;DHT22;5580;50.106;8.702;2022-08-02T13:31:33;27.90;74.20
11055;DHT22;5580;50.106;8.702;2022-08-02T13:34:04;27.90;73.70
11055;DHT22;5580;50.106;8.702;2022-08-02T13:36:32;27.90;74.30
11055;DHT22;5580;50.106;8.702;2022-08-02T13:38:58;27.90;74.60
11055;DHT22;5580;50.106;8.702;2022-08-02T13:41:24;27.90;74.50
11055;DHT22;5580;50.106;8.702;2022-08-02T13:43:50;28.00;74.00
11055;DHT22;5580;50.106;8.702;2022-08-02T13:46:15;28.00;73.80
11055;DHT22;5580;50.106;8.702;2022-08-02T13:48:41;28.00;73.20
11055;DHT22;5580;50.106;8.702;2022-08-02T13:51:07;28.10;73.30
11055;DHT22;5580;50.106;8.702;2022-08-02T13:53:37;28.10;73.90
11055;DHT22;5580;50.106;8.702;2022-08-02T13:56:06;28.10;74.00
11055;DHT22;5580;50.106;8.702;2022-08-02T13:58:31;28.10;74.20
11055;DHT22;5580;50.106;8.702;2022-08-02T14:00:57;28.10;74.20
11055;DHT22;5580;50.106;8.702;2022-08-02T14:03:23;28.10;74.40
11055;DHT22;5580;50.106;8.702;2022-08-02T14:05:49;28.20;74.90
11055;DHT22;5580;50.106;8.702;2022-08-02T14:08:19;28.20;74.40
11055;DHT22;5580;50.106;8.702;2022-08-02T14:10:49;28.20;72.90
11055;DHT22;5580;50.106;8.702;2022-08-02T14:13:15;28.20;72.90
11055;DHT22;5580;50.106;8.702;2022-08-02T14:15:41;28.20;72.10
11055;DHT22;5580;50.106;8.702;2022-08-02T14:18:07;28.20;72.70
11055;DHT22;5580;50.106;8.702;2022-08-02T14:20:33;28.20;72.10
11055;DHT22;5580;50.106;8.702;2022-08-02T14:22:58;28.20;71.20
11055;DHT22;5580;50.106;8.702;2022-08-02T14:25:24;28.20;71.10
11055;DHT22;5580;50.106;8.702;2022-08-02T14:27:50;28.30;71.10
11055;DHT22;5580;50.106;8.702;2022-08-02T14:30:16;28.30;71.00
11055;DHT22;5580;50.106;8.702;2022-08-02T14:32:42;28.30;71.00
11055;DHT22;5580;50.106;8.702;2022-08-02T14:35:08;28.30;70.80
11055;DHT22;5580;50.106;8.702;2022-08-02T14:37:33;28.30;70.90
11055;DHT22;5580;50.106;8.702;2022-08-02T14:39:59;28.30;70.50
11055;DHT22;5580;50.106;8.702;2022-08-02T14:42:24;28.40;71.50
11055;DHT22;5580;50.106;8.702;2022-08-02T14:44:50;28.40;72.40
11055;DHT22;5580;50.106;8.702;2022-08-02T14:47:15;28.40;72.30
11055;DHT22;5580;50.106;8.702;2022-08-02T14:49:41;28.40;72.60
11055;DHT22;5580;50.106;8.702;2022-08-02T14:52:07;28.40;72.30
11055;DHT22;5580;50.106;8.702;2022-08-02T14:54:32;28.40;72.00
11055;DHT22;5580;50.106;8.702;2022-08-02T14:56:59;28.40;71.90
11055;DHT22;5580;50.106;8.702;2022-08-02T14:59:25;28.40;71.30
11055;DHT22;5580;50.106;8.702;2022-08-02T15:01:51;28.40;72.40
11055;DHT22;5580;50.106;8.702;2022-08-02T15:04:16;28.50;71.40
11055;DHT22;5580;50.106;8.702;2022-08-02T15:06:42;28.50;71.30
11055;DHT22;5580;50.106;8.702;2022-08-02T15:09:08;28.50;72.50
11055;DHT22;5580;50.106;8.702;2022-08-02T15:11:33;28.60;71.20
11055;DHT22;5580;50.106;8.702;2022-08-02T15:14:01;28.60;72.10
11055;DHT22;5580;50.106;8.702;2022-08-02T15:16:27;28.60;71.00
11055;DHT22;5580;50.106;8.702;2022-08-02T15:18:55;28.60;71.50
11055;DHT22;5580;50.106;8.702;2022-08-02T15:21:20;28.60;71.00
11055;DHT22;5580;50.106;8.702;2022-08-02T15:23:46;28.60;70.90
11055;DHT22;5580;50.106;8.702;2022-08-02T15:26:11;28.60;70.90
11055;DHT22;5580;50.106;8.702;2022-08-02T15:28:37;28.60;71.90
11055;DHT22;5580;50.106;8.702;2022-08-02T15:31:03;28.60;72.10
11055;DHT22;5580;50.106;8.702;2022-08-02T15:33:29;28.60;73.50
11055;DHT22;5580;50.106;8.702;2022-08-02T15:35:54;28.60;70.70
11055;DHT22;5580;50.106;8.702;2022-08-02T15:38:20;28.50;70.60
11055;DHT22;5580;50.106;8.702;2022-08-02T15:40:47;28.50;70.90
11055;DHT22;5580;50.106;8.702;2022-08-02T15:43:13;28.50;71.80
11055;DHT22;5580;50.106;8.702;2022-08-02T15:45:39;28.50;70.90
11055;DHT22;5580;50.106;8.702;2022-08-02T15:48:05;28.50;71.30
11055;DHT22;5580;50.106;8.702;2022-08-02T15:50:31;28.60;71.50
11055;DHT22;5580;50.106;8.702;2022-08-02T15:52:57;28.60;71.50
11055;DHT22;5580;50.106;8.702;2022-08-02T15:55:22;28.60;71.30
11055;DHT22;5580;50.106;8.702;2022-08-02T15:57:48;28.60;71.50
11055;DHT22;5580;50.106;8.702;2022-08-02T16:00:14;28.60;72.60
11055;DHT22;5580;50.106;8.702;2022-08-02T16:02:40;28.60;72.20
11055;DHT22;5580;50.106;8.702;2022-08-02T16:05:06;28.60;70.80
11055;DHT22;5580;50.106;8.702;2022-08-02T16:07:32;28.50;70.30
11055;DHT22;5580;50.106;8.702;2022-08-02T16:09:58;28.40;69.20
11055;DHT22;5580;50.106;8.702;2022-08-02T16:12:23;28.40;69.40
11055;DHT22;5580;50.106;8.702;2022-08-02T16:14:49;28.40;69.90
11055;DHT22;5580;50.106;8.702;2022-08-02T16:17:15;28.40;70.10
11055;DHT22;5580;50.106;8.702;2022-08-02T16:19:40;28.40;70.90
11055;DHT22;5580;50.106;8.702;2022-08-02T16:22:06;28.40;69.60